Time;durP1;ratioP1;P1;durP2;ratioP2;P2;SDS_P1;SDS_P2;PMS_P1;PMS_P2;Temp;Humidity;BMP_temperature;BMP_pressure;BME280_temperature;BME280_humidity;BME280_pressure;Samples;Min_cycle;Max_cycle;Signal;HPM_P1;HPM_P2
2022/04/30 00:00:46;;;;;;;12.20;7.03;;;;;;;9.75;75.17;97840.72;5045107;28;20049;-67
2022/04/30 00:03:12;;;;;;;8.55;7.07;;;;;;;9.94;72.87;97843.28;5045351;28;20033;-68
2022/04/30 00:05:39;;;;;;;8.75;6.72;;;;;;;9.97;72.43;97844.69;5045377;28;20046;-69
2022/04/30 00:08:07;;;;;;;8.40;6.75;;;;;;;10.16;70.88;97842.66;5046295;28;20045;-67
2022/04/30 00:10:37;;;;;;;10.50;6.95;;;;;;;10.30;69.80;97850.53;5045242;28;20041;-69
2022/04/30 00:13:06;;;;;;;8.23;6.10;;;;;;;10.43;68.14;97852.97;5045322;28;20586;-68
2022/04/30 00:15:34;;;;;;;9.23;6.47;;;;;;;10.59;67.29;97842.50;5045878;28;20570;-67
2022/04/30 00:18:01;;;;;;;8.05;6.13;;;;;;;10.65;67.15;97847.75;5045768;28;20771;-68
2022/04/30 00:20:28;;;;;;;10.73;6.70;;;;;;;10.62;67.79;97853.66;5045560;28;20043;-67
2022/04/30 00:22:55;;;;;;;8.95;6.65;;;;;;;10.72;67.71;97850.31;5044622;28;20037;-66
2022/04/30 00:25:23;;;;;;;10.98;7.25;;;;;;;10.72;68.22;97853.03;5059123;28;20657;-68
2022/04/30 00:27:51;;;;;;;10.50;7.40;;;;;;;10.70;68.78;97846.22;5044160;28;20041;-69
2022/04/30 00:30:19;;;;;;;12.45;8.20;;;;;;;10.67;69.60;97847.53;5045000;28;20413;-67
2022/04/30 00:32:47;;;;;;;13.32;9.60;;;;;;;10.56;71.13;97860.03;5045051;28;20095;-68
2022/04/30 00:35:14;;;;;;;14.73;9.75;;;;;;;10.54;71.31;97852.16;5045378;28;20769;-67
2022/04/30 00:37:41;;;;;;;15.48;10.70;;;;;;;10.49;72.88;97853.94;5045452;28;20047;-67
2022/04/30 00:40:08;;;;;;;19.10;11.30;;;;;;;10.37;74.06;97852.06;5044370;28;20049;-69
2022/04/30 00:42:35;;;;;;;19.10;11.15;;;;;;;10.34;74.55;97851.69;5042031;28;20052;-68
2022/04/30 00:45:01;;;;;;;19.48;11.63;;;;;;;10.39;74.58;97851.78;5045720;28;20041;-68
2022/04/30 00:47:28;;;;;;;21.27;12.68;;;;;;;10.31;75.71;97844.06;5032673;28;20041;-68
2022/04/30 00:49:54;;;;;;;22.02;14.30;;;;;;;10.18;76.92;97843.28;5044164;28;20769;-69
2022/04/30 00:52:25;;;;;;;23.20;13.55;;;;;;;10.19;76.90;97846.78;5044328;28;20053;-68
2022/04/30 00:54:59;;;;;;;21.50;13.52;;;;;;;10.10;77.63;97841.72;5025234;28;20497;-67
2022/04/30 00:57:27;;;;;;;24.38;13.57;;;;;;;10.06;77.98;97853.28;5027888;28;20803;-67
2022/04/30 01:00:00;;;;;;;26.33;14.15;;;;;;;10.06;77.93;97851.38;5045373;28;20069;-69
2022/04/30 01:02:28;;;;;;;21.67;13.48;;;;;;;10.08;78.35;97853.84;5043470;28;20053;-68
2022/04/30 01:05:14;;;;;;;20.75;13.63;;;;;;;10.04;78.67;97847.28;5044258;28;20152;-68
2022/04/30 01:07:41;;;;;;;24.70;12.80;;;;;;;10.09;78.45;97847.38;5043718;28;20041;-68
2022/04/30 01:10:09;;;;;;;22.58;13.80;;;;;;;10.03;79.32;97846.47;5045214;28;20041;-67
2022/04/30 01:12:36;;;;;;;28.30;14.52;;;;;;;10.02;79.56;97842.94;5043977;28;20063;-68
2022/04/30 01:15:06;;;;;;;21.48;13.88;;;;;;;10.13;78.49;97845.84;5045013;28;20036;-68
2022/04/30 01:17:35;;;;;;;21.95;14.25;;;;;;;10.08;79.05;97841.16;5043637;28;20037;-68
2022/04/30 01:20:04;;;;;;;21.25;14.13;;;;;;;10.06;79.36;97840.56;5045270;28;20064;-68
2022/04/30 01:22:38;;;;;;;20.23;14.20;;;;;;;10.12;78.72;97838.78;5043009;28;20047;-67
2022/04/30 01:25:05;;;;;;;19.05;12.75;;;;;;;10.11;78.88;97834.44;5049749;28;20052;-68
2022/04/30 01:27:36;;;;;;;20.15;14.05;;;;;;;9.99;79.39;97834.47;5026958;28;20037;-69
2022/04/30 01:30:04;;;;;;;22.55;12.23;;;;;;;10.07;79.05;97838.69;5044146;28;20048;-67
2022/04/30 01:38:03;;;;;;;18.45;12.05;;;;;;;9.90;79.32;97828.59;5044710;28;20045;-68
2022/04/30 01:40:31;;;;;;;18.63;12.48;;;;;;;9.90;79.42;97820.47;5043536;28;20053;-67
2022/04/30 01:43:01;;;;;;;16.33;11.48;;;;;;;9.93;78.84;97824.56;5047017;28;20045;-67
2022/04/30 01:45:28;;;;;;;21.63;12.03;;;;;;;9.92;78.81;97823.78;5048717;28;20516;-68
2022/04/30 01:47:57;;;;;;;16.65;11.20;;;;;;;9.91;79.01;97814.00;5047945;28;20037;-68
2022/04/30 01:50:23;;;;;;;19.08;12.38;;;;;;;9.87;78.85;97816.34;5048723;28;20493;-67
2022/04/30 01:52:50;;;;;;;17.58;12.82;;;;;;;9.82;78.74;97810.00;5046150;28;20075;-68
2022/04/30 01:55:17;;;;;;;16.65;11.18;;;;;;;9.81;79.09;97808.38;5048875;28;20060;-68
2022/04/30 01:57:44;;;;;;;16.33;11.32;;;;;;;9.78;79.33;97800.72;5033145;28;20098;-68
2022/04/30 02:00:14;;;;;;;18.52;11.10;;;;;;;9.75;79.33;97813.66;5046939;28;20052;-69
2022/04/30 02:02:44;;;;;;;15.90;10.70;;;;;;;9.79;79.24;97811.31;5047331;28;20579;-68
2022/04/30 02:05:13;;;;;;;16.85;11.40;;;;;;;9.79;79.35;97813.16;5048621;28;20044;-68
2022/04/30 02:07:51;;;;;;;18.83;12.20;;;;;;;9.72;79.86;97811.44;5047400;28;20044;-67
2022/04/30 02:10:21;;;;;;;18.85;12.45;;;;;;;9.58;80.66;97808.13;5043213;28;20045;-67
2022/04/30 02:12:50;;;;;;;20.85;11.27;;;;;;;9.63;80.62;97810.94;5046983;28;20049;-68
2022/04/30 02:15:19;;;;;;;19.40;12.77;;;;;;;9.56;81.21;97812.13;5045928;28;20052;-68
2022/04/30 02:17:46;;;;;;;19.38;12.18;;;;;;;9.58;81.08;97810.84;5047552;28;20144;-69
2022/04/30 02:20:19;;;;;;;21.67;12.85;;;;;;;9.59;81.39;97808.97;5048145;28;20059;-68
2022/04/30 02:22:46;;;;;;;22.05;12.82;;;;;;;9.55;81.80;97808.59;5046844;28;20044;-68
2022/04/30 02:25:14;;;;;;;22.65;13.23;;;;;;;9.57;82.13;97805.66;5051096;28;20040;-67
2022/04/30 02:27:52;;;;;;;22.42;14.02;;;;;;;9.57;82.11;97805.66;5047067;28;20044;-68
2022/04/30 02:30:22;;;;;;;23.33;14.73;;;;;;;9.52;83.20;97814.47;5047207;28;20049;-68
2022/04/30 02:32:58;;;;;;;24.20;15.23;;;;;;;9.48;83.93;97813.31;5046873;28;20408;-67
2022/04/30 02:35:28;;;;;;;25.95;14.75;;;;;;;9.49;83.93;97809.53;5047830;28;20045;-66
2022/04/30 02:37:58;;;;;;;25.23;14.95;;;;;;;9.48;84.47;97813.31;5045901;28;20037;-68
2022/04/30 02:40:27;;;;;;;24.88;16.02;;;;;;;9.42;84.78;97806.13;5046845;28;20116;-68
2022/04/30 02:42:54;;;;;;;25.38;15.50;;;;;;;9.34;85.50;97802.72;5045874;28;20049;-68
2022/04/30 02:45:22;;;;;;;31.83;18.13;;;;;;;9.34;85.71;97807.28;5045230;28;20044;-67
2022/04/30 02:47:55;;;;;;;31.35;18.05;;;;;;;9.31;86.10;97808.59;5046599;28;20124;-69
2022/04/30 02:50:23;;;;;;;36.80;19.50;;;;;;;9.30;86.66;97804.25;5047908;28;20103;-68
2022/04/30 02:52:50;;;;;;;30.38;18.65;;;;;;;9.34;86.26;97800.03;5044783;28;20069;-67
2022/04/30 02:55:17;;;;;;;32.17;18.88;;;;;;;9.36;86.40;97805.16;5046053;28;20040;-66
2022/04/30 03:00:40;;;;;;;31.30;20.40;;;;;;;9.19;87.16;97800.47;5046301;28;20475;-68
2022/04/30 03:03:23;;;;;;;40.05;24.08;;;;;;;9.17;87.19;97799.84;5044539;28;20047;-66
2022/04/30 03:05:53;;;;;;;32.15;21.25;;;;;;;9.20;87.03;97802.09;5047033;28;20051;-66
2022/04/30 03:08:22;;;;;;;32.13;18.33;;;;;;;9.26;86.70;97802.22;5048029;28;20520;-67
2022/04/30 03:10:55;;;;;;;32.60;20.02;;;;;;;9.25;86.95;97796.00;5047277;28;20073;-67
2022/04/30 03:13:24;;;;;;;31.83;19.58;;;;;;;9.29;86.40;97799.88;5046695;28;20076;-67
2022/04/30 03:15:52;;;;;;;32.03;19.08;;;;;;;9.29;86.16;97813.38;5045089;28;20065;-67
2022/04/30 03:23:54;;;;;;;32.13;19.75;;;;;;;9.24;86.65;97795.19;5046941;28;20040;-68
2022/04/30 03:26:21;;;;;;;33.47;20.08;;;;;;;9.23;86.77;97798.94;5047085;28;20033;-67
2022/04/30 03:28:47;;;;;;;34.35;21.15;;;;;;;9.23;86.81;97798.13;5046381;28;20520;-68
2022/04/30 03:31:16;;;;;;;35.13;21.80;;;;;;;9.17;87.37;97794.47;5045171;28;20048;-67
2022/04/30 03:33:44;;;;;;;34.50;20.13;;;;;;;9.27;87.30;97799.28;5034938;28;20053;-67
2022/04/30 03:36:15;;;;;;;32.65;19.75;;;;;;;9.17;87.60;97797.16;5045578;28;20616;-68
2022/04/30 03:38:42;;;;;;;35.92;23.05;;;;;;;9.15;87.28;97807.38;5046452;28;20385;-67
2022/04/30 03:41:08;;;;;;;34.05;24.10;;;;;;;9.03;88.25;97801.94;5046097;28;20049;-67
2022/04/30 03:43:35;;;;;;;35.70;21.08;;;;;;;9.13;88.96;97812.19;5039686;28;20627;-66
2022/04/30 03:46:02;;;;;;;43.95;22.67;;;;;;;9.12;89.40;97815.94;5046564;28;20037;-67
2022/04/30 03:48:28;;;;;;;33.97;21.42;;;;;;;9.06;89.60;97811.47;5045401;28;20045;-67
2022/04/30 03:50:57;;;;;;;39.58;22.20;;;;;;;8.98;89.95;97832.34;5045426;28;20432;-66
2022/04/30 03:53:24;;;;;;;35.70;22.50;;;;;;;9.02;90.59;97829.19;5046465;28;20408;-67
2022/04/30 03:55:51;;;;;;;34.28;22.60;;;;;;;8.96;91.54;97833.66;5044657;28;20037;-67
2022/04/30 03:58:17;;;;;;;37.83;24.85;;;;;;;8.83;91.64;97835.47;5044544;28;20053;-67
2022/04/30 04:00:46;;;;;;;45.70;26.20;;;;;;;8.83;93.58;97829.25;5046067;28;20064;-67
2022/04/30 04:03:13;;;;;;;38.67;23.52;;;;;;;8.83;92.49;97840.03;5041840;28;20102;-67
2022/04/30 04:05:40;;;;;;;40.80;24.88;;;;;;;8.63;93.06;97834.91;5045108;28;20562;-65
2022/04/30 04:08:11;;;;;;;45.70;26.52;;;;;;;8.56;94.02;97835.00;5046372;28;20091;-67
2022/04/30 04:10:39;;;;;;;53.20;27.08;;;;;;;8.64;94.66;97831.16;5045764;28;20055;-67
2022/04/30 04:18:36;;;;;;;40.08;25.13;;;;;;;8.82;94.05;97835.72;5043417;28;20053;-67
2022/04/30 04:21:02;;;;;;;39.08;24.63;;;;;;;8.70;93.27;97833.78;5037272;28;20048;-67
2022/04/30 04:25:58;;;;;;;41.15;24.83;;;;;;;8.78;93.18;97832.66;5041809;28;20033;-67
2022/04/30 04:26:16;;;;;;;40.47;22.85;;;;;;;8.70;93.16;97833.78;5044032;28;20056;-67
2022/04/30 04:28:42;;;;;;;39.90;24.02;;;;;;;8.74;93.79;97844.13;5044488;28;20496;-67
2022/04/30 04:31:09;;;;;;;35.70;20.98;;;;;;;8.70;92.86;97841.06;5045846;28;20098;-67
2022/04/30 04:33:35;;;;;;;35.28;21.70;;;;;;;8.79;93.56;97841.56;5044904;28;20033;-67
2022/04/30 04:36:02;;;;;;;37.88;22.15;;;;;;;8.73;94.02;97835.19;5044203;28;20504;-66
2022/04/30 04:38:32;;;;;;;40.00;22.48;;;;;;;8.67;95.33;97836.91;5041240;28;20041;-67
2022/04/30 04:40:58;;;;;;;39.58;22.95;;;;;;;8.69;95.71;97842.09;5023486;28;20049;-66
2022/04/30 04:43:25;;;;;;;45.08;24.67;;;;;;;8.68;94.92;97835.06;5040001;28;20041;-67
2022/04/30 04:45:51;;;;;;;41.03;22.92;;;;;;;8.65;94.83;97839.03;5040521;28;20119;-66
2022/04/30 04:48:18;;;;;;;35.50;22.02;;;;;;;8.75;95.29;97833.09;5042439;28;20583;-67
2022/04/30 04:50:46;;;;;;;37.25;23.17;;;;;;;8.80;96.04;97837.78;5041571;28;20033;-66
2022/04/30 04:53:13;;;;;;;32.13;20.75;;;;;;;8.74;93.69;97833.31;5042047;28;20728;-67
2022/04/30 04:55:40;;;;;;;37.83;21.30;;;;;;;8.81;94.80;97832.16;5040583;28;20036;-67
2022/04/30 04:58:06;;;;;;;31.05;20.58;;;;;;;8.83;93.93;97840.88;5041813;28;20581;-67
2022/04/30 05:00:33;;;;;;;36.22;22.88;;;;;;;8.58;94.13;97835.59;5042663;28;20060;-66
2022/04/30 05:02:59;;;;;;;37.08;21.25;;;;;;;8.61;95.80;97834.31;5041773;28;20049;-67
2022/04/30 05:05:26;;;;;;;35.28;21.30;;;;;;;8.58;94.86;97843.69;5042005;28;20053;-67
2022/04/30 05:07:53;;;;;;;38.47;22.13;;;;;;;8.64;96.68;97848.19;5047126;28;20045;-66
2022/04/30 05:10:19;;;;;;;36.55;22.77;;;;;;;8.63;95.80;97846.56;5045466;28;20045;-66
2022/04/30 05:12:46;;;;;;;35.03;21.50;;;;;;;8.75;96.56;97857.41;5041835;28;20045;-67
2022/04/30 05:15:13;;;;;;;36.63;21.60;;;;;;;8.76;96.17;97863.59;5041832;28;20072;-66
2022/04/30 05:17:40;;;;;;;36.97;23.92;;;;;;;8.55;96.04;97863.88;5039771;28;20044;-67
2022/04/30 05:20:07;;;;;;;41.65;23.67;;;;;;;8.62;96.15;97866.47;5042182;28;20045;-67
2022/04/30 05:22:54;;;;;;;40.42;22.10;;;;;;;8.80;95.54;97865.63;5044775;28;20041;-68
2022/04/30 05:25:20;;;;;;;34.88;22.30;;;;;;;8.83;95.71;97869.75;5045511;28;20397;-66
2022/04/30 05:27:47;;;;;;;42.33;23.25;;;;;;;8.67;95.88;97869.31;5041838;28;20057;-67
2022/04/30 05:30:14;;;;;;;43.42;24.30;;;;;;;8.67;96.27;97866.63;5040447;28;20045;-67
2022/04/30 05:32:40;;;;;;;35.33;22.70;;;;;;;8.76;96.43;97866.31;5044777;28;20068;-67
2022/04/30 05:35:07;;;;;;;37.00;22.77;;;;;;;8.73;96.29;97869.47;5041161;28;20041;-67
2022/04/30 05:37:34;;;;;;;40.10;22.27;;;;;;;8.87;96.74;97868.25;5037977;28;20037;-67
2022/04/30 05:40:00;;;;;;;40.78;23.75;;;;;;;8.77;95.78;97876.88;5039301;28;20056;-66
2022/04/30 05:42:27;;;;;;;39.08;24.23;;;;;;;8.65;96.67;97870.59;5035385;28;20040;-67
2022/04/30 05:44:53;;;;;;;41.20;23.52;;;;;;;8.56;96.91;97870.91;5040115;28;20048;-68
2022/04/30 05:47:20;;;;;;;40.80;24.25;;;;;;;8.62;97.59;97874.56;5037939;28;20103;-66
2022/04/30 05:49:47;;;;;;;43.95;25.02;;;;;;;8.65;97.37;97882.22;5042153;28;20053;-67
2022/04/30 05:52:13;;;;;;;34.30;21.98;;;;;;;8.65;96.25;97876.84;5036966;28;20052;-67
2022/04/30 05:54:40;;;;;;;34.30;22.23;;;;;;;8.80;96.65;97889.09;5044913;28;20037;-66
2022/04/30 05:57:08;;;;;;;38.08;22.35;;;;;;;8.91;96.52;97892.91;5043273;28;20656;-67
2022/04/30 05:59:34;;;;;;;37.33;22.17;;;;;;;8.78;95.64;97891.22;5043588;28;20504;-67
2022/04/30 06:02:01;;;;;;;32.65;21.50;;;;;;;8.86;96.34;97890.91;5042883;28;20056;-66
2022/04/30 06:04:34;;;;;;;36.63;23.88;;;;;;;8.59;96.59;97894.75;5043730;28;20049;-67
2022/04/30 06:07:00;;;;;;;36.38;22.02;;;;;;;8.53;96.61;97895.66;5044179;28;20045;-66
2022/04/30 06:09:27;;;;;;;39.70;24.17;;;;;;;8.57;97.29;97899.56;5044093;28;20049;-66
2022/04/30 06:11:54;;;;;;;36.92;23.30;;;;;;;8.59;97.30;97900.16;5043430;28;20044;-67
2022/04/30 06:14:21;;;;;;;38.72;24.50;;;;;;;8.69;97.29;97898.78;5044561;28;20060;-67
2022/04/30 06:16:47;;;;;;;39.08;23.13;;;;;;;8.85;97.89;97900.88;5043751;28;20577;-66
2022/04/30 06:19:14;;;;;;;37.47;22.58;;;;;;;8.92;97.67;97903.47;5043030;28;20045;-67
2022/04/30 06:21:43;;;;;;;36.03;22.40;;;;;;;8.80;96.65;97900.72;5042332;28;20052;-66
2022/04/30 06:24:09;;;;;;;34.80;21.52;;;;;;;8.79;97.51;97900.97;5040496;28;20409;-68
2022/04/30 06:26:36;;;;;;;35.58;22.38;;;;;;;8.81;97.76;97904.28;5043263;28;20044;-66
2022/04/30 06:29:03;;;;;;;32.95;21.27;;;;;;;8.70;96.79;97900.47;5045778;28;20048;-66
2022/04/30 06:31:29;;;;;;;32.45;20.80;;;;;;;8.73;97.07;97907.28;5046106;28;20084;-67
2022/04/30 06:33:56;;;;;;;35.03;21.95;;;;;;;8.69;98.35;97904.19;5048334;28;20080;-67
2022/04/30 06:36:22;;;;;;;35.72;21.58;;;;;;;8.70;98.64;97905.84;5047440;28;20408;-68
2022/04/30 06:38:49;;;;;;;31.13;21.08;;;;;;;8.70;98.21;97912.06;5048131;28;20102;-67
2022/04/30 06:41:15;;;;;;;31.88;20.55;;;;;;;8.74;98.12;97912.47;5044690;28;20389;-68
2022/04/30 06:43:42;;;;;;;32.58;21.27;;;;;;;8.76;98.35;97914.91;5047424;28;20045;-65
2022/04/30 06:46:09;;;;;;;35.72;21.02;;;;;;;8.74;97.69;97920.56;5048069;28;20044;-67
2022/04/30 06:48:36;;;;;;;34.60;21.48;;;;;;;8.74;97.89;97912.47;5046705;28;20045;-66
2022/04/30 06:51:04;;;;;;;30.60;19.55;;;;;;;8.81;98.11;97906.97;5047042;28;20531;-67
2022/04/30 06:59:10;;;;;;;30.23;18.52;;;;;;;8.60;95.81;97917.19;5039590;28;20045;-67
2022/04/30 07:01:41;;;;;;;30.83;17.50;;;;;;;8.60;97.13;97914.47;5041096;28;20427;-67
2022/04/30 07:04:09;;;;;;;31.77;19.63;;;;;;;8.70;97.12;97925.56;5038026;28;20041;-68
2022/04/30 07:06:36;;;;;;;31.10;19.13;;;;;;;8.88;98.53;97925.78;5039273;28;20048;-68
2022/04/30 07:09:05;;;;;;;34.22;20.88;;;;;;;8.91;97.64;97923.44;5043597;28;20047;-68
2022/04/30 07:11:32;;;;;;;29.40;19.33;;;;;;;8.85;97.87;97922.47;5039610;28;20037;-66
2022/04/30 07:13:59;;;;;;;29.50;17.17;;;;;;;8.91;97.20;97918.03;5039039;28;20061;-67
2022/04/30 07:16:26;;;;;;;23.05;16.88;;;;;;;8.79;97.60;97928.78;5043826;28;20029;-68
2022/04/30 07:18:53;;;;;;;32.05;19.02;;;;;;;8.84;98.29;97926.22;5035379;28;20045;-66
2022/04/30 07:21:19;;;;;;;29.92;19.33;;;;;;;8.65;98.53;97927.28;5041019;28;20053;-67
2022/04/30 07:23:46;;;;;;;30.63;20.05;;;;;;;8.82;99.81;97932.91;5042909;28;20542;-51
2022/04/30 07:26:13;;;;;;;33.10;20.40;;;;;;;8.63;98.05;97932.09;5036207;28;20060;-51
2022/04/30 07:28:39;;;;;;;30.35;18.73;;;;;;;8.70;97.25;97930.97;5044429;28;20049;-51
2022/04/30 07:31:06;;;;;;;25.00;16.60;;;;;;;8.59;97.00;97931.75;5031779;28;20049;-53
2022/04/30 07:33:33;;;;;;;28.83;18.00;;;;;;;8.68;98.30;97932.25;5038222;28;20098;-50
2022/04/30 07:36:00;;;;;;;31.23;18.85;;;;;;;8.67;98.03;97938.69;5043324;28;20048;-68
2022/04/30 07:38:27;;;;;;;30.48;18.63;;;;;;;8.68;97.91;97943.03;5038238;28;20596;-67
2022/04/30 07:40:54;;;;;;;30.02;18.92;;;;;;;8.66;97.87;97939.75;5042818;28;20048;-67
2022/04/30 07:43:21;;;;;;;29.75;18.63;;;;;;;8.31;98.49;97933.03;5041468;28;20716;-67
2022/04/30 07:45:47;;;;;;;32.25;20.55;;;;;;;8.57;100.00;97939.22;5042460;28;20037;-66
2022/04/30 07:48:14;;;;;;;33.13;21.27;;;;;;;8.67;99.66;97941.41;5041660;28;20040;-66
2022/04/30 07:50:44;;;;;;;30.50;18.58;;;;;;;8.71;98.25;97943.41;5043297;28;20041;-67
2022/04/30 07:53:15;;;;;;;32.97;19.10;;;;;;;8.59;98.86;97946.03;5043069;28;20469;-68
2022/04/30 07:55:43;;;;;;;29.67;19.80;;;;;;;8.70;99.50;97947.16;5043587;28;20047;-67
2022/04/30 07:58:10;;;;;;;27.75;18.67;;;;;;;8.75;99.00;97940.25;5041781;28;20529;-66
2022/04/30 08:00:37;;;;;;;25.88;16.80;;;;;;;8.67;98.68;97944.91;5043400;28;20055;-67
2022/04/30 08:03:04;;;;;;;29.23;17.63;;;;;;;8.67;99.87;97947.59;5042413;28;20607;-67
2022/04/30 08:05:31;;;;;;;34.00;19.70;;;;;;;8.63;100.00;97946.44;5046250;28;20069;-67
2022/04/30 08:07:58;;;;;;;30.98;19.25;;;;;;;8.69;100.00;97947.38;5043712;28;20037;-67
2022/04/30 08:10:24;;;;;;;31.70;18.98;;;;;;;8.64;99.71;97939.97;5042467;28;20045;-67
2022/04/30 08:12:55;;;;;;;28.35;18.45;;;;;;;8.73;99.36;97945.06;5050666;28;20048;-66
2022/04/30 08:15:25;;;;;;;30.40;18.15;;;;;;;8.86;98.88;97953.00;5053614;28;20048;-68
2022/04/30 08:17:53;;;;;;;24.85;16.70;;;;;;;8.97;96.20;97944.16;5042746;28;20040;-68
2022/04/30 08:20:21;;;;;;;22.50;14.68;;;;;;;8.99;96.89;97954.72;5040968;28;20135;-67
2022/04/30 08:22:48;;;;;;;21.70;15.15;;;;;;;8.92;94.89;97946.69;5038570;28;20110;-67
2022/04/30 08:25:15;;;;;;;21.88;15.10;;;;;;;8.87;94.17;97949.25;5047629;28;20045;-66
2022/04/30 08:27:42;;;;;;;24.02;15.35;;;;;;;9.00;95.66;97947.44;5042013;28;20459;-66
2022/04/30 08:30:10;;;;;;;23.83;16.20;;;;;;;9.03;96.35;97947.00;5031608;28;20053;-67
2022/04/30 08:32:37;;;;;;;24.15;16.08;;;;;;;9.04;95.58;97949.47;5041714;28;20041;-67
2022/04/30 08:35:04;;;;;;;22.00;15.32;;;;;;;9.01;96.63;97946.38;5042257;28;20071;-65
2022/04/30 08:37:50;;;;;;;24.38;15.70;;;;;;;9.32;95.15;97942.63;5042770;28;20040;-67
2022/04/30 08:40:17;;;;;;;21.90;14.98;;;;;;;9.60;92.60;97951.19;5044491;28;20079;-68
2022/04/30 08:42:45;;;;;;;21.13;15.32;;;;;;;9.64;93.35;97946.97;5040484;28;20420;-68
2022/04/30 08:45:13;;;;;;;16.83;12.55;;;;;;;9.76;90.97;97947.81;5043174;28;20053;-68
2022/04/30 08:47:41;;;;;;;15.68;11.45;;;;;;;10.02;89.34;97943.03;5041357;28;20045;-67
2022/04/30 08:50:11;;;;;;;17.98;12.38;;;;;;;10.08;90.19;97946.69;5038788;28;20063;-67
2022/04/30 08:52:38;;;;;;;17.67;11.93;;;;;;;9.42;91.21;97950.19;5045158;28;20044;-65
2022/04/30 08:55:06;;;;;;;17.98;11.88;;;;;;;9.53;91.82;97947.75;5047323;28;20048;-67
2022/04/30 08:57:33;;;;;;;17.45;11.82;;;;;;;9.74;92.80;97941.81;5042006;28;20041;-67
2022/04/30 09:00:01;;;;;;;14.90;11.38;;;;;;;9.83;93.86;97938.75;5057672;28;20052;-69
2022/04/30 09:02:28;;;;;;;16.00;10.82;;;;;;;9.96;91.77;97943.97;5038512;28;20044;-67
2022/04/30 09:04:55;;;;;;;12.25;9.30;;;;;;;9.89;91.02;97940.53;5039508;28;20701;-69
2022/04/30 09:07:23;;;;;;;15.00;9.95;;;;;;;10.10;90.58;97941.03;5041603;28;20045;-69
2022/04/30 09:09:55;;;;;;;12.82;9.30;;;;;;;10.19;87.97;97946.91;5034610;28;20504;-69
2022/04/30 09:12:22;;;;;;;13.15;9.77;;;;;;;10.36;87.75;97947.84;5033109;28;20542;-66
2022/04/30 09:14:49;;;;;;;14.25;9.05;;;;;;;10.27;86.43;97949.25;5047610;28;20045;-67
2022/04/30 09:17:16;;;;;;;13.70;9.93;;;;;;;10.59;87.91;97945.38;5031820;28;20148;-67
2022/04/30 09:19:53;;;;;;;12.23;9.05;;;;;;;10.68;87.42;97948.56;5031636;28;20041;-69
2022/04/30 09:22:34;;;;;;;13.70;9.93;;;;;;;10.82;87.00;97951.81;5043338;28;20049;-69
2022/04/30 09:25:05;;;;;;;10.43;8.05;;;;;;;10.90;86.73;97948.72;5040000;28;20450;-66
2022/04/30 09:27:53;;;;;;;12.70;8.95;;;;;;;10.74;88.07;97951.13;5041087;28;20037;-72
2022/04/30 09:30:25;;;;;;;12.48;8.13;;;;;;;10.83;86.99;97948.06;5044548;28;20060;-68
2022/04/30 09:32:58;;;;;;;10.90;8.35;;;;;;;11.25;86.45;97946.97;5046334;28;20048;-69
2022/04/30 09:38:11;;;;;;;9.80;6.53;;;;;;;11.57;84.54;97941.03;5034375;28;20045;-67
2022/04/30 09:40:38;;;;;;;10.27;6.70;;;;;;;11.52;85.87;97939.06;5041534;28;20036;-64
2022/04/30 09:43:15;;;;;;;9.32;6.13;;;;;;;11.44;82.65;97948.44;5041466;28;20519;-68
2022/04/30 09:45:42;;;;;;;7.88;5.72;;;;;;;11.39;85.47;97942.88;5043507;28;20055;-72
2022/04/30 09:56:29;;;;;;;7.75;4.68;;;;;;;10.86;85.63;97937.56;5037534;28;20044;-67
2022/04/30 09:58:57;;;;;;;7.60;5.35;;;;;;;10.85;83.79;97938.63;5039177;28;20542;-70
2022/04/30 10:01:26;;;;;;;7.90;5.22;;;;;;;11.29;80.49;97942.72;5041444;28;20045;-70
2022/04/30 10:03:54;;;;;;;9.43;5.90;;;;;;;11.34;84.86;97933.84;5063691;28;20040;-73
2022/04/30 10:06:21;;;;;;;8.55;5.50;;;;;;;11.48;84.66;97935.19;5050647;28;20045;-71
2022/04/30 10:08:48;;;;;;;7.72;5.28;;;;;;;11.41;82.93;97934.50;5049507;28;20310;-71
2022/04/30 10:11:32;;;;;;;6.88;5.43;;;;;;;11.98;80.93;97930.06;5040698;28;20655;-67
2022/04/30 10:14:19;;;;;;;7.63;4.80;;;;;;;11.87;80.30;97934.47;5044510;28;20040;-69
2022/04/30 10:17:11;;;;;;;6.13;4.65;;;;;;;11.57;81.45;97933.72;5062224;28;20044;-69
2022/04/30 10:19:35;;;;;;;5.95;4.38;;;;;;;11.61;83.35;97934.06;5057016;28;20045;-72
2022/04/30 10:22:11;;;;;;;6.13;4.38;;;;;;;12.10;81.16;97925.38;5036301;28;20076;-72
2022/04/30 10:24:46;;;;;;;6.18;4.43;;;;;;;11.87;80.69;97930.97;5042036;28;20044;-68
2022/04/30 10:27:14;;;;;;;6.20;4.43;;;;;;;11.89;80.77;97926.09;5045796;28;20037;-68
2022/04/30 10:29:57;;;;;;;5.50;3.90;;;;;;;12.60;81.88;97921.97;5043559;28;20048;-67
2022/04/30 10:32:34;;;;;;;7.63;4.20;;;;;;;12.32;81.80;97924.59;5040718;28;20092;-71
2022/04/30 10:35:03;;;;;;;5.57;4.35;;;;;;;12.36;82.03;97922.22;5043528;28;20508;-69
2022/04/30 10:37:38;;;;;;;5.93;3.95;;;;;;;12.36;80.47;97919.50;5034915;28;20048;-65
2022/04/30 10:40:08;;;;;;;5.95;3.70;;;;;;;12.81;76.56;97930.41;5043081;28;20274;-71
2022/04/30 10:42:43;;;;;;;7.38;3.60;;;;;;;12.55;76.03;97930.91;5044868;28;20049;-68
2022/04/30 10:45:15;;;;;;;5.50;3.60;;;;;;;12.30;76.98;97931.34;5040390;28;20084;-74
2022/04/30 10:47:51;;;;;;;7.15;4.38;;;;;;;11.90;79.46;97923.13;5040356;28;20041;-72
2022/04/30 10:50:18;;;;;;;5.65;4.03;;;;;;;11.65;81.72;97926.25;5044635;28;20673;-72
2022/04/30 10:52:49;;;;;;;5.40;3.95;;;;;;;12.38;78.93;97925.50;5057857;28;20048;-72
2022/04/30 10:55:19;;;;;;;5.15;3.58;;;;;;;12.31;76.62;97931.09;5046159;28;20034;-74
2022/04/30 10:57:46;;;;;;;5.63;4.03;;;;;;;12.98;77.84;97933.06;5036827;28;20313;-70
2022/04/30 11:00:14;;;;;;;5.25;3.30;;;;;;;12.87;71.50;97937.56;5042903;28;20056;-70
2022/04/30 11:02:48;;;;;;;6.43;3.65;;;;;;;12.19;75.38;97933.09;5040693;28;20045;-70
2022/04/30 11:05:22;;;;;;;9.15;4.45;;;;;;;12.13;79.81;97923.25;5040304;28;20152;-70
2022/04/30 11:07:49;;;;;;;5.05;3.40;;;;;;;12.95;73.20;97928.97;5043497;28;20047;-71
2022/04/30 11:10:16;;;;;;;4.82;3.90;;;;;;;12.39;76.09;97926.31;5041158;28;20049;-70
2022/04/30 11:12:44;;;;;;;6.85;5.13;;;;;;;12.20;79.78;97924.72;5043445;28;20052;-70
2022/04/30 11:15:13;;;;;;;6.28;4.93;;;;;;;12.48;72.80;97930.25;5041575;28;20055;-70
2022/04/30 11:17:45;;;;;;;6.50;4.40;;;;;;;12.53;71.97;97918.66;5042112;28;20063;-70
2022/04/30 11:20:23;;;;;;;7.40;4.70;;;;;;;12.75;71.14;97921.34;5038488;28;20045;-70
2022/04/30 11:22:58;;;;;;;6.00;3.83;;;;;;;13.60;66.50;97919.31;5039263;28;20048;-69
2022/04/30 11:25:40;;;;;;;6.75;4.65;;;;;;;13.05;74.17;97913.84;5039380;28;20420;-69
2022/04/30 11:28:08;;;;;;;6.43;4.50;;;;;;;13.29;75.25;97910.81;5040500;28;20041;-70
2022/04/30 11:30:41;;;;;;;5.95;4.32;;;;;;;12.95;71.44;97917.25;5042494;28;20052;-68
2022/04/30 11:33:08;;;;;;;5.63;4.60;;;;;;;13.04;70.58;97917.63;5043386;28;20060;-69
2022/04/30 11:35:35;;;;;;;6.30;5.03;;;;;;;13.05;72.66;97919.28;5044177;28;20049;-70
2022/04/30 11:38:07;;;;;;;6.85;4.50;;;;;;;12.45;72.58;97912.56;5039927;28;20036;-70
2022/04/30 11:40:34;;;;;;;7.07;4.85;;;;;;;12.37;75.08;97913.00;5041923;28;20576;-70
2022/04/30 11:43:02;;;;;;;6.38;4.68;;;;;;;12.50;74.18;97919.97;5038986;28;20063;-65
2022/04/30 11:45:31;;;;;;;7.82;4.28;;;;;;;12.15;74.24;97910.22;5053965;28;20048;-66
2022/04/30 11:48:03;;;;;;;5.65;3.97;;;;;;;12.40;71.66;97912.50;5038886;28;20116;-72
2022/04/30 11:50:30;;;;;;;5.43;3.17;;;;;;;13.40;68.91;97913.41;5041372;28;20044;-68
2022/04/30 11:52:58;;;;;;;5.38;3.78;;;;;;;13.26;67.65;97918.41;5041876;28;20045;-70
2022/04/30 11:55:25;;;;;;;8.43;4.13;;;;;;;13.68;69.38;97913.41;5041449;28;20045;-64
2022/04/30 11:57:51;;;;;;;6.03;4.13;;;;;;;13.04;70.43;97917.63;5040245;28;20041;-68
2022/04/30 12:00:19;;;;;;;5.80;4.13;;;;;;;13.26;67.30;97910.25;5040751;28;20613;-65
2022/04/30 12:02:47;;;;;;;7.03;4.10;;;;;;;13.20;68.10;97921.34;5042294;28;20559;-72
2022/04/30 12:05:15;;;;;;;6.15;3.90;;;;;;;13.74;65.32;97917.78;5041838;28;20049;-68
2022/04/30 12:07:44;;;;;;;5.40;3.78;;;;;;;13.35;68.20;97926.13;5033723;28;20041;-75
2022/04/30 12:10:20;;;;;;;5.65;3.83;;;;;;;13.14;68.43;97913.13;5040713;28;20063;-71